createdAt,value
2023-06-01T00:00:24.528Z,2.10
2023-06-01T00:02:52.092Z,1.97
2023-06-01T00:05:19.715Z,2.07
2023-06-01T00:07:47.149Z,1.80
2023-06-01T00:10:14.661Z,2.10
2023-06-01T00:12:43.200Z,1.77
2023-06-01T00:15:11.467Z,1.90
2023-06-01T00:17:40.406Z,2.03
2023-06-01T00:20:09.316Z,1.77
2023-06-01T00:22:39.529Z,2.10
2023-06-01T00:25:08.132Z,1.60
2023-06-01T00:27:35.580Z,1.73
2023-06-01T00:30:03.084Z,1.93
2023-06-01T00:32:30.801Z,2.07
2023-06-01T00:34:59.653Z,1.77
2023-06-01T00:37:27.133Z,2.13
2023-06-01T00:39:54.559Z,1.97
2023-06-01T00:42:22.007Z,2.00
2023-06-01T00:44:49.801Z,2.20
2023-06-01T00:47:17.546Z,2.10
2023-06-01T00:49:45.295Z,1.77
2023-06-01T00:52:14.468Z,2.20
2023-06-01T00:54:42.338Z,2.03
2023-06-01T00:57:09.838Z,2.00
2023-06-01T00:59:38.102Z,1.97
2023-06-01T01:02:06.111Z,2.47
2023-06-01T01:04:33.729Z,2.20
2023-06-01T01:07:09.007Z,2.13
2023-06-01T01:09:43.836Z,2.00
2023-06-01T01:12:19.060Z,2.30
2023-06-01T01:14:52.354Z,2.10
2023-06-01T01:17:25.926Z,2.20
2023-06-01T01:20:09.301Z,2.10
2023-06-01T01:22:49.531Z,2.30
2023-06-01T01:25:28.066Z,2.33
2023-06-01T01:28:08.736Z,1.80
2023-06-01T01:30:39.451Z,2.47
2023-06-01T01:33:08.819Z,2.00
2023-06-01T01:35:37.557Z,2.20
2023-06-01T01:38:05.284Z,2.00
2023-06-01T01:40:32.810Z,2.20
2023-06-01T01:43:00.976Z,2.10
2023-06-01T01:45:28.561Z,2.40
2023-06-01T01:48:04.881Z,2.17
2023-06-01T01:50:51.342Z,2.23
2023-06-01T01:53:20.061Z,2.30
2023-06-01T01:55:50.795Z,2.20
2023-06-01T01:58:18.926Z,2.30
2023-06-01T02:00:47.336Z,2.17
2023-06-01T02:03:17.200Z,2.30
2023-06-01T02:05:46.464Z,2.20
2023-06-01T02:08:14.024Z,2.13
2023-06-01T02:10:42.000Z,2.23
2023-06-01T02:13:09.521Z,2.30
2023-06-01T02:15:36.994Z,3.63
2023-06-01T02:18:04.753Z,4.17
2023-06-01T02:20:33.512Z,3.87
2023-06-01T02:23:01.248Z,3.80
2023-06-01T02:25:28.844Z,3.50
2023-06-01T02:27:56.268Z,6.67
2023-06-01T02:30:23.699Z,2.93
2023-06-01T02:32:51.183Z,4.00
2023-06-01T02:35:18.883Z,3.60
2023-06-01T02:37:47.654Z,2.90
2023-06-01T02:40:15.076Z,3.33
2023-06-01T02:42:42.494Z,2.93
2023-06-01T02:45:10.863Z,3.10
2023-06-01T02:47:38.509Z,3.00
2023-06-01T02:50:07.425Z,3.20
2023-06-01T02:52:36.206Z,3.07
2023-06-01T02:55:05.870Z,3.63
2023-06-01T02:57:33.348Z,3.30
2023-06-01T03:00:00.798Z,3.30
2023-06-01T03:02:28.745Z,3.70
2023-06-01T03:04:56.233Z,2.90
2023-06-01T03:07:23.901Z,3.57
2023-06-01T03:09:51.320Z,3.60
2023-06-01T03:12:20.063Z,3.50
2023-06-01T03:14:47.494Z,3.80
2023-06-01T03:17:15.000Z,4.10
2023-06-01T03:19:42.499Z,3.83
2023-06-01T03:22:10.130Z,4.13
2023-06-01T03:24:37.934Z,4.27
2023-06-01T03:27:05.860Z,4.23
2023-06-01T03:29:34.733Z,4.90
2023-06-01T03:32:02.192Z,4.80
2023-06-01T03:34:30.537Z,4.53
2023-06-01T03:36:58.434Z,4.70
2023-06-01T03:39:26.136Z,5.53
2023-06-01T03:41:53.559Z,4.43
2023-06-01T03:44:20.970Z,4.67
2023-06-01T03:46:49.852Z,5.13
2023-06-01T03:49:17.350Z,5.40
2023-06-01T03:51:44.858Z,5.23
2023-06-01T03:54:12.438Z,5.20
2023-06-01T03:56:39.897Z,5.27
2023-06-01T03:59:08.595Z,4.97
2023-06-01T04:01:41.044Z,5.63
2023-06-01T04:04:10.474Z,5.13
2023-06-01T04:06:38.150Z,4.40
2023-06-01T04:09:07.983Z,4.93
2023-06-01T04:11:35.448Z,6.25
2023-06-01T04:14:03.466Z,5.20
2023-06-01T04:16:31.081Z,4.60
2023-06-01T04:18:58.775Z,5.32
2023-06-01T04:21:27.561Z,6.65
2023-06-01T04:23:55.059Z,6.70
2023-06-01T04:26:22.515Z,10.90
2023-06-01T04:28:49.995Z,10.03
2023-06-01T04:31:18.713Z,8.73
2023-06-01T04:33:46.567Z,8.80
2023-06-01T04:36:14.628Z,9.23
2023-06-01T04:38:43.853Z,8.30
2023-06-01T04:41:11.812Z,8.17
2023-06-01T04:43:40.482Z,10.37
2023-06-01T04:46:09.160Z,9.10
2023-06-01T04:48:37.467Z,8.97
2023-06-01T04:51:05.438Z,10.60
2023-06-01T04:53:32.894Z,9.30
2023-06-01T04:56:01.777Z,9.50
2023-06-01T04:58:29.214Z,8.60
2023-06-01T05:00:56.668Z,9.13
2023-06-01T05:03:24.160Z,10.73
2023-06-01T05:05:51.610Z,9.30
2023-06-01T05:08:19.061Z,9.50
2023-06-01T05:10:46.514Z,8.30
2023-06-01T05:13:15.311Z,7.90
2023-06-01T05:15:42.806Z,8.17
2023-06-01T05:18:10.594Z,8.43
2023-06-01T05:20:38.552Z,8.37
2023-06-01T05:23:06.675Z,7.13
2023-06-01T05:25:34.132Z,7.37
2023-06-01T05:28:01.577Z,7.73
2023-06-01T05:30:30.439Z,10.53
2023-06-01T05:32:57.872Z,26.07
2023-06-01T05:35:25.333Z,12.30
2023-06-01T05:37:52.742Z,27.40
2023-06-01T05:40:20.175Z,22.17
2023-06-01T05:42:47.742Z,9.73
2023-06-01T05:45:15.457Z,18.23
2023-06-01T05:47:44.414Z,7.37
2023-06-01T05:50:12.405Z,8.00
2023-06-01T05:52:40.355Z,6.20
2023-06-01T05:55:08.718Z,6.63
2023-06-01T05:57:36.191Z,6.77
2023-06-01T06:00:08.793Z,6.10
2023-06-01T06:02:36.269Z,6.50
2023-06-01T06:05:05.704Z,5.90
2023-06-01T06:07:33.269Z,6.10
2023-06-01T06:10:00.809Z,5.73
2023-06-01T06:12:28.798Z,7.10
2023-06-01T06:14:56.365Z,6.17
2023-06-01T06:17:24.015Z,6.50
2023-06-01T06:19:51.520Z,5.50
2023-06-01T06:22:21.123Z,5.83
2023-06-01T06:24:50.271Z,5.53
2023-06-01T06:27:17.780Z,5.70
2023-06-01T06:29:45.221Z,6.40
2023-06-01T06:32:12.727Z,5.67
2023-06-01T06:34:40.254Z,5.60
2023-06-01T06:37:08.159Z,5.80
2023-06-01T06:39:38.532Z,6.00
2023-06-01T06:42:07.170Z,5.13
2023-06-01T06:44:34.577Z,6.43
2023-06-01T06:47:02.834Z,5.83
2023-06-01T06:49:30.485Z,6.30
2023-06-01T06:51:57.942Z,5.83
2023-06-01T06:54:25.464Z,5.97
2023-06-01T06:56:54.260Z,6.33
2023-06-01T06:59:21.720Z,5.70
2023-06-01T07:01:49.246Z,6.70
2023-06-01T07:04:16.754Z,5.23
2023-06-01T07:06:44.429Z,6.10
2023-06-01T07:09:12.250Z,5.57
2023-06-01T07:11:43.832Z,6.90
2023-06-01T07:14:12.949Z,5.90
2023-06-01T07:16:41.779Z,5.57
2023-06-01T07:19:09.547Z,5.43
2023-06-01T07:21:37.735Z,5.30
2023-06-01T07:24:06.008Z,5.40
2023-06-01T07:26:33.516Z,5.67
2023-06-01T07:29:01.270Z,5.40
2023-06-01T07:31:30.135Z,6.03
2023-06-01T07:33:57.669Z,6.47
2023-06-01T07:36:25.209Z,8.57
2023-06-01T07:38:52.693Z,30.93
2023-06-01T07:41:20.197Z,16.57
2023-06-01T07:43:47.776Z,13.10
2023-06-01T07:46:15.296Z,15.37
2023-06-01T07:48:44.058Z,18.03
2023-06-01T07:51:11.693Z,5.17
2023-06-01T07:53:39.095Z,5.50
2023-06-01T07:56:06.563Z,5.50
2023-06-01T07:58:34.209Z,5.13
2023-06-01T08:01:01.811Z,5.13
2023-06-01T08:03:29.452Z,5.43
2023-06-01T08:06:00.774Z,4.93
2023-06-01T08:08:28.557Z,5.70
2023-06-01T08:10:56.778Z,4.63
2023-06-01T08:13:26.641Z,5.10
2023-06-01T08:15:54.583Z,4.17
2023-06-01T08:18:23.166Z,15.93
2023-06-01T08:20:50.952Z,6.13
2023-06-01T08:23:23.535Z,5.50
2023-06-01T08:25:51.038Z,5.53
2023-06-01T08:28:18.510Z,4.87
2023-06-01T08:30:45.935Z,4.47
2023-06-01T08:33:13.521Z,5.20
2023-06-01T08:35:41.022Z,4.73
2023-06-01T08:38:08.523Z,4.63
2023-06-01T08:40:37.257Z,4.67
2023-06-01T08:43:14.791Z,4.67
2023-06-01T08:45:43.087Z,5.10
2023-06-01T08:48:11.133Z,3.93
2023-06-01T08:50:39.215Z,4.67
2023-06-01T08:53:07.755Z,4.60
2023-06-01T08:55:35.486Z,5.03
2023-06-01T08:58:05.722Z,4.70
2023-06-01T09:00:34.354Z,4.60
2023-06-01T09:03:02.044Z,5.00
2023-06-01T09:05:29.542Z,4.80
2023-06-01T09:07:57.009Z,4.43
2023-06-01T09:10:26.018Z,4.60
2023-06-01T09:12:54.515Z,5.80
2023-06-01T09:15:24.404Z,5.20
2023-06-01T09:17:53.485Z,4.50
2023-06-01T09:20:25.703Z,4.27
2023-06-01T09:22:54.051Z,4.90
2023-06-01T09:25:27.855Z,4.90
2023-06-01T09:27:56.544Z,5.50
2023-06-01T09:30:27.889Z,5.17
2023-06-01T09:33:11.269Z,4.60
2023-06-01T09:35:40.098Z,5.17
2023-06-01T09:38:07.664Z,10.33
2023-06-01T09:40:36.389Z,8.07
2023-06-01T09:43:04.039Z,5.60
2023-06-01T09:45:33.254Z,5.57
2023-06-01T09:48:19.688Z,5.93
2023-06-01T09:50:47.503Z,6.67
2023-06-01T09:53:15.653Z,6.50
2023-06-01T09:56:00.172Z,5.80
2023-06-01T09:58:28.713Z,11.90
2023-06-01T10:01:02.041Z,17.43
2023-06-01T10:03:30.633Z,6.57
2023-06-01T10:05:59.737Z,8.00
2023-06-01T10:08:28.060Z,6.80
2023-06-01T10:10:55.517Z,7.23
2023-06-01T10:13:25.863Z,7.80
2023-06-01T10:15:57.112Z,7.40
2023-06-01T10:18:24.798Z,7.97
2023-06-01T10:20:53.136Z,6.60
2023-06-01T10:23:30.345Z,7.27
2023-06-01T10:26:01.808Z,11.83
2023-06-01T10:28:32.045Z,13.50
2023-06-01T10:31:33.154Z,8.80
2023-06-01T10:34:01.979Z,7.53
2023-06-01T10:37:02.986Z,9.13
2023-06-01T10:39:31.587Z,9.25
2023-06-01T10:42:20.576Z,9.38
2023-06-01T10:44:49.537Z,9.15
2023-06-01T10:47:49.332Z,11.55
2023-06-01T10:50:20.303Z,9.35
2023-06-01T10:52:48.804Z,11.18
2023-06-01T10:55:26.224Z,8.20
2023-06-01T10:58:25.386Z,8.77
2023-06-01T11:00:55.005Z,11.85
2023-06-01T11:03:47.370Z,31.40
2023-06-01T11:06:32.862Z,26.55
2023-06-01T11:09:01.693Z,9.90
2023-06-01T11:12:02.212Z,9.23
2023-06-01T11:14:33.139Z,9.38
2023-06-01T11:17:30.356Z,13.82
2023-06-01T11:20:12.349Z,8.32
2023-06-01T11:22:40.679Z,11.23
2023-06-01T11:25:10.098Z,11.10
2023-06-01T11:27:38.338Z,11.43
2023-06-01T11:30:09.214Z,14.05
2023-06-01T11:32:41.166Z,8.20
2023-06-01T11:35:18.840Z,9.07
2023-06-01T11:37:48.262Z,7.85
2023-06-01T11:40:16.363Z,8.02
2023-06-01T11:42:43.790Z,8.60
2023-06-01T11:45:17.699Z,7.20
2023-06-01T11:47:46.692Z,7.88
2023-06-01T11:50:25.743Z,8.20
2023-06-01T11:52:53.317Z,6.97
2023-06-01T11:55:20.750Z,7.18
2023-06-01T11:57:48.213Z,7.38
2023-06-01T12:00:17.797Z,9.20
2023-06-01T12:02:45.826Z,6.68
2023-06-01T12:05:14.998Z,6.50
2023-06-01T12:07:46.476Z,6.55
2023-06-01T12:10:16.645Z,6.68
2023-06-01T12:12:45.075Z,6.18
2023-06-01T12:15:13.212Z,6.65
2023-06-01T12:20:30.860Z,5.88
2023-06-01T12:22:59.495Z,6.53
2023-06-01T12:25:27.562Z,6.40
2023-06-01T12:28:02.795Z,6.10
2023-06-01T12:30:30.445Z,6.03
2023-06-01T12:32:59.452Z,6.65
2023-06-01T12:35:27.025Z,6.10
2023-06-01T12:38:08.604Z,6.25
2023-06-01T12:40:36.461Z,6.40
2023-06-01T12:43:05.329Z,6.07
2023-06-01T12:45:40.587Z,5.07
2023-06-01T12:48:09.431Z,5.30
2023-06-01T12:50:44.965Z,5.88
2023-06-01T12:53:12.448Z,5.35
2023-06-01T12:55:39.874Z,5.55
2023-06-01T12:58:07.317Z,5.28
2023-06-01T13:00:55.135Z,5.20
2023-06-01T13:03:24.241Z,6.22
2023-06-01T13:05:52.258Z,4.72
2023-06-01T13:08:20.107Z,4.72
2023-06-01T13:10:47.813Z,5.25
2023-06-01T13:13:15.571Z,4.63
2023-06-01T13:15:43.563Z,4.93
2023-06-01T13:18:11.600Z,5.05
2023-06-01T13:20:41.267Z,4.68
2023-06-01T13:23:09.167Z,5.38
2023-06-01T13:25:36.796Z,5.55
2023-06-01T13:28:04.579Z,4.72
2023-06-01T13:30:34.289Z,4.63
2023-06-01T13:33:01.816Z,4.50
2023-06-01T13:35:29.760Z,4.68
2023-06-01T13:37:59.032Z,4.50
2023-06-01T13:40:26.495Z,4.95
2023-06-01T13:42:55.319Z,5.03
2023-06-01T13:45:23.681Z,5.07
2023-06-01T13:47:51.632Z,4.82
2023-06-01T13:50:19.483Z,5.40
2023-06-01T13:52:47.555Z,5.07
2023-06-01T13:55:16.427Z,4.65
2023-06-01T13:57:43.920Z,4.50
2023-06-01T14:00:12.979Z,4.60
2023-06-01T14:02:40.625Z,4.68
2023-06-01T14:05:13.180Z,4.65
2023-06-01T14:07:44.336Z,4.78
2023-06-01T14:10:14.749Z,4.95
2023-06-01T14:12:43.608Z,4.97
2023-06-01T14:15:11.677Z,4.50
2023-06-01T14:17:39.139Z,4.57
2023-06-01T14:20:07.582Z,4.50
2023-06-01T14:22:34.990Z,4.95
2023-06-01T14:25:02.430Z,4.80
2023-06-01T14:27:29.916Z,4.57
2023-06-01T14:29:58.685Z,4.35
2023-06-01T14:32:26.150Z,4.60
2023-06-01T14:34:53.590Z,4.75
2023-06-01T14:37:21.015Z,4.30
2023-06-01T14:39:48.712Z,4.57
2023-06-01T14:42:16.197Z,4.25
2023-06-01T14:44:47.007Z,4.50
2023-06-01T14:47:20.550Z,3.88
2023-06-01T14:49:47.959Z,4.07
2023-06-01T14:52:15.406Z,4.65
2023-06-01T14:54:42.844Z,4.38
2023-06-01T14:57:10.462Z,4.22
2023-06-01T14:59:41.606Z,4.00
2023-06-01T15:02:13.802Z,3.97
2023-06-01T15:04:42.582Z,3.90
2023-06-01T15:07:10.037Z,3.50
2023-06-01T15:09:37.461Z,4.25
2023-06-01T15:12:05.434Z,4.38
2023-06-01T15:14:32.860Z,4.10
2023-06-01T15:17:00.444Z,4.22
2023-06-01T15:19:27.929Z,4.32
2023-06-01T15:21:56.695Z,3.95
2023-06-01T15:24:24.163Z,4.15
2023-06-01T15:26:51.839Z,4.43
2023-06-01T15:29:19.616Z,4.32
2023-06-01T15:31:47.129Z,4.35
2023-06-01T15:34:14.593Z,4.22
2023-06-01T15:36:42.134Z,4.05
2023-06-01T15:39:11.376Z,3.60
2023-06-01T15:41:39.002Z,3.22
2023-06-01T15:44:06.572Z,4.18
2023-06-01T15:46:34.122Z,3.95
2023-06-01T15:49:01.980Z,3.83
2023-06-01T15:51:29.868Z,3.58
2023-06-01T15:53:57.287Z,3.67
2023-06-01T15:56:26.787Z,3.10
2023-06-01T15:58:54.847Z,3.67
2023-06-01T16:01:29.157Z,2.92
2023-06-01T16:03:57.744Z,3.55
2023-06-01T16:06:25.827Z,2.90
2023-06-01T16:08:53.270Z,3.85
2023-06-01T16:11:21.602Z,2.97
2023-06-01T16:13:50.645Z,3.40
2023-06-01T16:16:19.225Z,3.10
2023-06-01T16:18:46.742Z,2.83
2023-06-01T16:21:15.296Z,2.90
2023-06-01T16:23:43.184Z,2.97
2023-06-01T16:26:10.903Z,2.95
2023-06-01T16:28:38.718Z,3.05
2023-06-01T16:31:07.698Z,3.15
2023-06-01T16:33:35.158Z,3.10
2023-06-01T16:36:02.594Z,3.10
2023-06-01T16:38:30.038Z,3.03
2023-06-01T16:40:57.494Z,3.55
2023-06-01T16:43:24.941Z,3.38
2023-06-01T16:45:52.427Z,3.63
2023-06-01T16:48:21.176Z,3.58
2023-06-01T16:50:48.636Z,2.88
2023-06-01T16:53:16.069Z,3.20
2023-06-01T16:55:43.695Z,3.30
2023-06-01T16:58:11.375Z,3.97
2023-06-01T17:00:38.854Z,3.55
2023-06-01T17:03:06.409Z,3.45
2023-06-01T17:05:35.318Z,3.53
2023-06-01T17:08:02.847Z,3.63
2023-06-01T17:10:30.547Z,3.50
2023-06-01T17:12:58.004Z,3.17
2023-06-01T17:15:27.869Z,3.28
2023-06-01T17:17:57.120Z,3.30
2023-06-01T17:20:24.795Z,3.55
2023-06-01T17:22:53.538Z,3.33
2023-06-01T17:25:21.031Z,2.92
2023-06-01T17:27:49.330Z,3.50
2023-06-01T17:30:17.033Z,4.10
2023-06-01T17:32:44.576Z,3.22
2023-06-01T17:35:12.254Z,3.67
2023-06-01T17:37:39.724Z,3.45
2023-06-01T17:40:10.107Z,4.03
2023-06-01T17:42:37.574Z,4.00
2023-06-01T17:45:05.897Z,4.65
2023-06-01T17:47:33.530Z,3.58
2023-06-01T17:50:01.097Z,3.30
2023-06-01T17:52:28.572Z,3.22
2023-06-01T17:54:56.104Z,3.35
2023-06-01T17:57:25.039Z,3.25
2023-06-01T17:59:52.616Z,3.83
2023-06-01T18:02:20.127Z,3.13
2023-06-01T18:04:50.793Z,3.17
2023-06-01T18:07:19.006Z,3.60
2023-06-01T18:09:49.143Z,3.30
2023-06-01T18:12:16.952Z,3.15
2023-06-01T18:14:47.528Z,2.92
2023-06-01T18:17:15.099Z,2.70
2023-06-01T18:19:42.654Z,2.60
2023-06-01T18:22:10.582Z,3.17
2023-06-01T18:24:38.097Z,2.90
2023-06-01T18:27:06.041Z,3.33
2023-06-01T18:29:33.478Z,3.33
2023-06-01T18:32:02.244Z,2.55
2023-06-01T18:34:29.713Z,2.90
2023-06-01T18:36:57.171Z,2.50
2023-06-01T18:39:24.774Z,2.40
2023-06-01T18:41:52.245Z,2.92
2023-06-01T18:44:19.764Z,2.60
2023-06-01T18:46:47.239Z,3.40
2023-06-01T18:49:19.489Z,2.97
2023-06-01T18:51:46.996Z,3.00
2023-06-01T18:54:14.518Z,2.80
2023-06-01T18:56:42.131Z,2.63
2023-06-01T18:59:09.877Z,2.70
2023-06-01T19:01:37.488Z,2.58
2023-06-01T19:04:05.173Z,2.60
2023-06-01T19:06:35.649Z,2.97
2023-06-01T19:09:04.527Z,5.32
2023-06-01T19:11:32.116Z,2.60
2023-06-01T19:13:59.577Z,2.72
2023-06-01T19:16:30.072Z,2.92
2023-06-01T19:18:59.380Z,2.72
2023-06-01T19:21:31.393Z,3.08
2023-06-01T19:24:02.122Z,3.08
2023-06-01T19:26:31.238Z,2.63
2023-06-01T19:29:02.937Z,2.95
2023-06-01T19:31:34.229Z,3.03
2023-06-01T19:34:03.190Z,3.00
2023-06-01T19:36:53.653Z,3.10
2023-06-01T19:39:29.479Z,2.45
2023-06-01T19:42:01.692Z,3.25
2023-06-01T19:44:30.619Z,2.83
2023-06-01T19:46:58.366Z,2.88
2023-06-01T19:49:25.988Z,2.60
2023-06-01T19:51:54.124Z,2.60
2023-06-01T19:54:25.168Z,2.53
2023-06-01T19:56:58.199Z,2.80
2023-06-01T19:59:27.532Z,3.17
2023-06-01T20:01:56.248Z,2.80
2023-06-01T20:04:24.853Z,2.70
2023-06-01T20:06:54.204Z,3.30
2023-06-01T20:09:24.769Z,2.83
2023-06-01T20:11:54.117Z,2.77
2023-06-01T20:14:24.437Z,2.67
2023-06-01T20:16:52.943Z,2.80
2023-06-01T20:19:24.070Z,3.10
2023-06-01T20:21:53.989Z,3.17
2023-06-01T20:24:26.213Z,3.20
2023-06-01T20:26:56.871Z,3.10
2023-06-01T20:29:24.563Z,2.70
2023-06-01T20:31:56.565Z,2.83
2023-06-01T20:34:25.811Z,2.70
2023-06-01T20:36:54.022Z,2.80
2023-06-01T20:39:25.911Z,2.63
2023-06-01T20:41:57.160Z,3.60
2023-06-01T20:44:24.874Z,2.57
2023-06-01T20:46:54.049Z,2.83
2023-06-01T20:49:25.983Z,2.63
2023-06-01T20:51:54.155Z,3.50
2023-06-01T20:54:23.423Z,3.27
2023-06-01T20:56:52.502Z,3.10
2023-06-01T20:59:23.187Z,2.97
2023-06-01T21:01:55.620Z,2.80
2023-06-01T21:04:24.904Z,2.97
2023-06-01T21:06:52.915Z,3.23
2023-06-01T21:09:25.044Z,3.53
2023-06-01T21:11:55.901Z,7.53
2023-06-01T21:14:24.770Z,3.10
2023-06-01T21:16:52.657Z,2.77
2023-06-01T21:19:20.504Z,4.10
2023-06-01T21:21:50.778Z,2.67
2023-06-01T21:24:18.267Z,3.17
2023-06-01T21:26:45.773Z,4.23
2023-06-01T21:29:13.419Z,3.33
2023-06-01T21:31:43.939Z,3.03
2023-06-01T21:34:11.479Z,2.43
2023-06-01T21:36:38.953Z,3.00
2023-06-01T21:39:07.921Z,3.43
2023-06-01T21:41:35.404Z,3.00
2023-06-01T21:44:04.457Z,3.73
2023-06-01T21:46:31.963Z,3.77
2023-06-01T21:49:00.900Z,3.13
2023-06-01T21:51:28.407Z,3.13
2023-06-01T21:53:55.929Z,3.60
2023-06-01T21:56:23.417Z,3.00
2023-06-01T21:58:51.025Z,3.13
2023-06-01T22:01:18.434Z,2.50
2023-06-01T22:03:45.913Z,2.90
2023-06-01T22:06:14.761Z,3.17
2023-06-01T22:08:42.217Z,3.20
2023-06-01T22:11:09.726Z,2.60
2023-06-01T22:13:37.305Z,2.93
2023-06-01T22:16:05.185Z,2.70
2023-06-01T22:18:32.807Z,2.73
2023-06-01T22:21:00.397Z,2.77
2023-06-01T22:23:29.322Z,2.90
2023-06-01T22:25:56.730Z,3.00
2023-06-01T22:28:24.236Z,2.90
2023-06-01T22:30:52.020Z,2.47
2023-06-01T22:33:19.465Z,2.47
2023-06-01T22:35:46.888Z,2.53
2023-06-01T22:38:14.340Z,3.33
2023-06-01T22:40:43.103Z,2.42
2023-06-01T22:43:10.555Z,2.90
2023-06-01T22:45:38.124Z,2.73
2023-06-01T22:48:06.196Z,3.40
2023-06-01T22:50:33.702Z,2.73
2023-06-01T22:53:01.205Z,3.00
2023-06-01T22:55:28.666Z,2.73
2023-06-01T22:57:57.476Z,2.47
2023-06-01T23:00:24.980Z,2.83
2023-06-01T23:02:52.474Z,2.10
2023-06-01T23:05:22.232Z,2.70
2023-06-01T23:07:51.989Z,2.67
2023-06-01T23:10:19.497Z,2.87
2023-06-01T23:12:49.401Z,2.60
2023-06-01T23:15:18.190Z,3.30
2023-06-01T23:17:46.650Z,2.53
2023-06-01T23:20:17.139Z,2.47
2023-06-01T23:22:46.195Z,2.67
2023-06-01T23:25:15.669Z,2.87
2023-06-01T23:27:43.105Z,3.10
2023-06-01T23:30:11.256Z,3.10
2023-06-01T23:32:40.145Z,2.80
2023-06-01T23:35:08.283Z,2.40
2023-06-01T23:37:36.239Z,2.77
2023-06-01T23:40:03.879Z,2.53
2023-06-01T23:42:31.300Z,2.57
2023-06-01T23:44:58.709Z,3.10
2023-06-01T23:47:26.372Z,3.07
2023-06-01T23:49:55.158Z,3.03
2023-06-01T23:52:22.746Z,3.10
2023-06-01T23:54:50.251Z,3.10
2023-06-01T23:57:17.762Z,3.50
2023-06-01T23:59:45.663Z,3.90
